ADDS METAR Data INFO
IDs: Format: Raw Decoded Include TAF

Data at: 0854 UTC 22 Feb 2018

KCMA 220755Z AUTO 30004KT 10SM CLR 06/01 A3017 RMK AO2 SLP226 T00610006 401610033
KCMA 220655Z AUTO 06006KT 10SM CLR 09/02 A3016 RMK AO2 SLP222 T00890017
KCMA 220555Z AUTO 07007KT 10SM CLR 09/02 A3015 RMK AO2 SLP220 T00940022 10156 20083 50006
KCMA 220455Z AUTO 06004KT 10SM CLR 09/02 A3015 RMK AO2 SLP220 T00940022
KCMA 220355Z 15005KT 10SM CLR 10/02 A3014 RMK AO2 SLP215 T01000022
KCMA 212355Z 28011KT 10SM CLR 15/M04 A3011 RMK AO2 SLP206 T01501039 10161 20133 55005
KCMA 212255Z 24010KT 10SM CLR 16/M04 A3011 RMK AO2 SLP206 T01561044
KCMA 212155Z 26011KT 10SM CLR 16/M06 A3011 RMK AO2 SLP207 T01611061
KCMA 212055Z 26010KT 10SM CLR 16/M06 A3013 RMK AO2 SLP211 T01561056 58007
KCMA 211955Z 23008KT 200V260 10SM CLR 16/M03 A3014 RMK AO2 SLP215 T01561033
KCMA 211855Z 23006KT 10SM CLR 15/M05 A3015 RMK AO2 SLP218 T01501050
KCMA 211755Z 00000KT 10SM CLR 14/M09 A3015 RMK AO2 SLP219 T01391089 10139 20033 50007
KCMA 211655Z 07006KT 10SM CLR 12/M07 A3015 RMK AO2 SLP220 T01221067
KCMA 211555Z 07005KT 10SM CLR 09/M06 A3014 RMK AO2 SLP214 T00891061
KCMA 211455Z 00000KT 10SM CLR 05/M06 A3013 RMK AO2 SLP211 T00501061 53012
KCMA 211355Z AUTO 06008KT 10SM CLR 06/M07 A3011 RMK AO2 SLP205 T00611072
KCMA 211255Z AUTO 07004KT 10SM CLR 06/M05 A3010 RMK AO2 SLP202 T00611050
KCMA 210755Z AUTO 00000KT 10SM CLR 04/M04 A3012 RMK AO2 SLP209 T00441044 401610017
KCMA 210655Z AUTO 07005KT 10SM CLR 07/M04 A3013 RMK AO2 SLP213 T00671044
KCMA 210555Z AUTO 07007KT 10SM CLR 08/M04 A3015 RMK AO2 SLP218 T00781039 10144 20067 51005